Piqua, Ohio
Current Conditions -  °F | °C
As of 3:35 AM on Saturday 22 Nov 2014 (Local Time) from KVES Reporting Station
Overcast Overcast  
Wind Chill: 21°   Ceiling: 2900
Heat Index: 30°   Visibility: 10mi
Dew Point: 19°   Wind: 10mph
Humidity: 64%   Direction: 180°S
Pressure: 30.27"   Gusts: 17mph
Location:  40.15°N, 84.24°W
Report Text: KVES 220835Z AUTO 18009G15KT 10SM OVC029 M01/M07 A3027 RMK AO2
Loading
Personal Weather Stations






























Interactive Weather Map New forecast layout! Learn more

10-Day Weather Forecast

Advertisements
Track Severe Weather on mobile